createdAt,value
2022-12-31T00:01:48.751Z,5.06
2022-12-31T00:05:03.733Z,5.11
2022-12-31T00:08:05.822Z,5.06
2022-12-31T00:11:21.758Z,5.04
2022-12-31T00:14:30.596Z,5.07
2022-12-31T00:17:39.865Z,5.03
2022-12-31T00:20:49.397Z,4.90
2022-12-31T00:24:04.859Z,4.94
2022-12-31T00:27:13.420Z,4.93
2022-12-31T00:30:22.750Z,4.79
2022-12-31T00:33:37.772Z,4.75
2022-12-31T00:36:40.204Z,4.82
2022-12-31T00:39:54.760Z,4.88
2022-12-31T00:42:56.684Z,4.79
2022-12-31T00:46:12.813Z,4.86
2022-12-31T00:49:21.891Z,4.86
2022-12-31T00:52:31.350Z,4.88
2022-12-31T00:55:45.793Z,4.90
2022-12-31T00:58:48.316Z,4.94
2022-12-31T01:02:02.814Z,4.86
2022-12-31T01:05:05.342Z,4.89
2022-12-31T01:08:19.757Z,4.87
2022-12-31T01:11:23.107Z,4.90
2022-12-31T01:14:37.773Z,4.99
2022-12-31T01:17:39.658Z,4.96
2022-12-31T01:20:55.788Z,4.96
2022-12-31T01:24:11.792Z,4.91
2022-12-31T01:27:13.781Z,4.96
2022-12-31T01:30:28.753Z,4.99
2022-12-31T01:33:30.635Z,4.97
2022-12-31T01:36:46.767Z,4.96
2022-12-31T01:39:55.802Z,4.98
2022-12-31T01:43:20.460Z,4.93
2022-12-31T01:46:35.897Z,4.97
2022-12-31T01:49:51.407Z,4.98
2022-12-31T01:53:04.748Z,5.03
2022-12-31T01:56:20.764Z,5.05
2022-12-31T01:59:27.034Z,5.06
2022-12-31T02:02:43.806Z,5.05
2022-12-31T02:06:01.792Z,5.08
2022-12-31T02:09:11.783Z,5.09
2022-12-31T02:12:19.766Z,5.14
2022-12-31T02:15:52.824Z,5.15
2022-12-31T02:19:29.495Z,5.18
2022-12-31T02:23:08.841Z,5.19
2022-12-31T02:26:37.534Z,5.19
2022-12-31T02:30:06.951Z,5.15
2022-12-31T02:33:29.833Z,5.13
2022-12-31T02:36:50.800Z,5.09
2022-12-31T02:39:59.828Z,5.17
2022-12-31T02:43:15.211Z,5.23
2022-12-31T02:46:38.019Z,5.27
2022-12-31T02:50:09.820Z,5.23
2022-12-31T02:53:47.785Z,5.24
2022-12-31T02:57:19.796Z,5.26
2022-12-31T03:00:22.387Z,5.28
2022-12-31T03:03:37.893Z,5.29
2022-12-31T03:06:46.912Z,5.24
2022-12-31T03:09:56.795Z,5.26
2022-12-31T03:13:11.829Z,5.25
2022-12-31T03:16:20.503Z,5.22
2022-12-31T03:19:28.834Z,5.27
2022-12-31T03:22:47.896Z,5.32
2022-12-31T03:25:49.983Z,5.29
2022-12-31T03:29:04.818Z,5.35
2022-12-31T03:32:19.925Z,5.31
2022-12-31T03:35:22.246Z,5.32
2022-12-31T03:38:36.802Z,5.31
2022-12-31T03:41:45.849Z,5.28
2022-12-31T03:45:07.839Z,5.31
2022-12-31T03:48:19.099Z,5.34
2022-12-31T03:51:33.802Z,5.33
2022-12-31T03:54:42.583Z,5.34
2022-12-31T03:57:51.931Z,5.40
2022-12-31T04:01:06.975Z,5.40
2022-12-31T04:04:09.039Z,5.32
2022-12-31T04:07:23.841Z,5.28
2022-12-31T04:10:32.460Z,5.34
2022-12-31T04:13:46.821Z,5.31
2022-12-31T04:16:54.842Z,5.29
2022-12-31T04:20:04.378Z,5.29
2022-12-31T04:23:19.825Z,5.35
2022-12-31T04:26:29.104Z,5.32
2022-12-31T04:29:43.825Z,5.36
2022-12-31T04:32:45.703Z,5.41
2022-12-31T04:36:07.955Z,5.38
2022-12-31T04:39:10.335Z,5.38
2022-12-31T04:42:24.877Z,5.41
2022-12-31T04:45:39.869Z,5.34
2022-12-31T04:48:54.928Z,5.42
2022-12-31T04:51:57.140Z,5.46
2022-12-31T04:55:12.894Z,5.50
2022-12-31T04:58:15.073Z,5.54
2022-12-31T05:01:31.242Z,5.44
2022-12-31T05:04:33.243Z,5.48
2022-12-31T05:07:47.962Z,5.50
2022-12-31T05:10:49.905Z,5.48
2022-12-31T05:14:04.906Z,5.43
2022-12-31T05:17:13.619Z,5.52
2022-12-31T05:20:22.970Z,5.54
2022-12-31T05:23:37.881Z,5.61
2022-12-31T05:26:45.877Z,5.51
2022-12-31T05:30:00.856Z,5.48
2022-12-31T05:33:09.799Z,5.49
2022-12-31T05:36:17.941Z,5.52
2022-12-31T05:39:32.953Z,5.56
2022-12-31T05:42:41.900Z,5.56
2022-12-31T05:45:50.608Z,5.56
2022-12-31T05:49:00.916Z,5.56
2022-12-31T05:52:16.884Z,5.56
2022-12-31T05:55:24.849Z,5.53
2022-12-31T05:58:33.653Z,5.45
2022-12-31T06:01:48.871Z,5.48
2022-12-31T06:04:57.500Z,5.48
2022-12-31T06:08:05.929Z,5.49
2022-12-31T06:11:20.947Z,5.50
2022-12-31T06:14:29.680Z,5.46
2022-12-31T06:17:44.985Z,5.47
2022-12-31T06:20:53.527Z,5.44
2022-12-31T06:24:02.004Z,5.45
2022-12-31T06:27:10.561Z,5.26
2022-12-31T06:30:25.120Z,5.38
2022-12-31T06:33:27.323Z,5.44
2022-12-31T06:36:41.906Z,5.41
2022-12-31T06:39:44.017Z,5.46
2022-12-31T06:43:00.293Z,5.52
2022-12-31T06:46:04.245Z,5.42
2022-12-31T06:49:19.952Z,5.41
2022-12-31T06:52:22.036Z,5.45
2022-12-31T06:55:37.917Z,5.50
2022-12-31T06:58:47.867Z,5.48
2022-12-31T07:02:14.014Z,5.42
2022-12-31T07:05:39.365Z,5.41
2022-12-31T07:09:07.945Z,5.41
2022-12-31T07:12:36.332Z,5.41
2022-12-31T07:16:07.061Z,5.45
2022-12-31T07:19:44.430Z,5.48
2022-12-31T07:22:52.892Z,5.56
2022-12-31T07:26:24.921Z,5.57
2022-12-31T07:29:42.664Z,5.60
2022-12-31T07:33:18.044Z,5.57
2022-12-31T07:36:59.978Z,5.63
2022-12-31T07:40:24.929Z,5.68
2022-12-31T07:43:53.117Z,5.67
2022-12-31T07:47:03.967Z,5.61
2022-12-31T07:50:22.952Z,5.61
2022-12-31T07:53:25.605Z,5.60
2022-12-31T07:56:39.977Z,5.59
2022-12-31T08:00:11.955Z,5.64
2022-12-31T08:03:50.589Z,5.58
2022-12-31T08:07:19.128Z,5.60
2022-12-31T08:10:54.999Z,5.69
2022-12-31T08:14:10.976Z,5.73
2022-12-31T08:17:15.714Z,5.73
2022-12-31T08:20:29.953Z,5.82
2022-12-31T08:23:54.350Z,5.84
2022-12-31T08:27:29.989Z,5.96
2022-12-31T08:30:53.380Z,6.03
2022-12-31T08:34:22.990Z,6.20
2022-12-31T08:38:04.127Z,6.27
2022-12-31T08:41:28.373Z,6.37
2022-12-31T08:45:08.980Z,6.41
2022-12-31T08:48:39.020Z,6.47
2022-12-31T08:51:48.033Z,6.42
2022-12-31T08:54:57.009Z,6.46
2022-12-31T08:58:32.340Z,6.49
2022-12-31T09:02:09.072Z,6.51
2022-12-31T09:05:41.988Z,6.77
2022-12-31T09:09:03.812Z,6.59
2022-12-31T09:12:39.005Z,6.67
2022-12-31T09:16:09.041Z,6.49
2022-12-31T09:19:11.669Z,6.58
2022-12-31T09:22:26.983Z,6.61
2022-12-31T09:25:36.017Z,6.54
2022-12-31T09:29:08.054Z,6.56
2022-12-31T09:32:25.851Z,6.68
2022-12-31T09:35:58.986Z,6.70
2022-12-31T09:39:13.576Z,6.75
2022-12-31T09:42:52.979Z,6.78
2022-12-31T09:46:32.032Z,6.70
2022-12-31T09:50:08.118Z,6.68
2022-12-31T09:53:35.876Z,6.83
2022-12-31T09:56:58.796Z,6.96
2022-12-31T10:00:20.184Z,7.05
2022-12-31T10:04:01.035Z,7.18
2022-12-31T10:07:51.982Z,7.21
2022-12-31T10:11:06.118Z,7.08
2022-12-31T10:14:49.022Z,7.06
2022-12-31T10:18:10.845Z,7.15
2022-12-31T10:21:55.217Z,7.23
2022-12-31T10:25:38.451Z,7.22
2022-12-31T10:29:02.166Z,7.35
2022-12-31T10:32:33.034Z,7.38
2022-12-31T10:35:57.016Z,7.28
2022-12-31T10:39:30.104Z,7.27
2022-12-31T10:42:52.074Z,7.36
2022-12-31T10:46:42.102Z,7.40
2022-12-31T10:50:28.067Z,7.38
2022-12-31T10:53:52.206Z,7.13
2022-12-31T10:57:27.117Z,7.01
2022-12-31T11:00:53.580Z,7.10
2022-12-31T11:04:45.061Z,7.11
2022-12-31T11:08:17.122Z,7.11
2022-12-31T11:11:55.869Z,7.08
2022-12-31T11:15:24.056Z,6.94
2022-12-31T11:19:00.361Z,6.77
2022-12-31T11:22:32.073Z,6.72
2022-12-31T11:26:17.242Z,6.80
2022-12-31T11:29:59.119Z,6.87
2022-12-31T11:33:21.181Z,6.87
2022-12-31T11:36:56.162Z,6.96
2022-12-31T11:40:26.147Z,6.99
2022-12-31T11:43:56.089Z,6.94
2022-12-31T11:47:23.092Z,6.97
2022-12-31T11:50:55.215Z,7.08
2022-12-31T11:54:41.061Z,7.14
2022-12-31T11:57:52.471Z,7.06
2022-12-31T12:01:24.082Z,7.02
2022-12-31T12:04:32.921Z,7.16
2022-12-31T12:07:48.084Z,7.35
2022-12-31T12:11:00.080Z,7.47
2022-12-31T12:14:27.147Z,7.49
2022-12-31T12:17:39.296Z,7.51
2022-12-31T12:20:48.017Z,7.43
2022-12-31T12:24:08.093Z,7.39
2022-12-31T12:27:27.401Z,7.36
2022-12-31T12:30:45.220Z,7.26
2022-12-31T12:33:48.633Z,7.35
2022-12-31T12:37:03.101Z,7.43
2022-12-31T12:40:27.021Z,7.62
2022-12-31T12:43:42.129Z,7.76
2022-12-31T12:47:05.226Z,7.81
2022-12-31T12:50:23.244Z,7.92
2022-12-31T12:54:14.144Z,7.83
2022-12-31T12:57:32.345Z,7.74
2022-12-31T13:01:03.246Z,7.92
2022-12-31T13:04:36.182Z,7.99
2022-12-31T13:08:05.104Z,8.04
2022-12-31T13:12:07.326Z,8.09
2022-12-31T13:15:27.085Z,8.00
2022-12-31T13:19:00.329Z,8.04
2022-12-31T13:22:25.806Z,8.08
2022-12-31T13:25:50.165Z,8.17
2022-12-31T13:29:02.326Z,8.12
2022-12-31T13:32:15.206Z,8.09
2022-12-31T13:35:40.825Z,8.12
2022-12-31T13:38:59.169Z,8.19
2022-12-31T13:42:18.251Z,8.10
2022-12-31T13:45:42.057Z,8.05
2022-12-31T13:49:00.228Z,8.02
2022-12-31T13:52:35.160Z,7.96
2022-12-31T13:55:44.476Z,7.91
2022-12-31T13:59:08.149Z,7.87
2022-12-31T14:02:35.329Z,7.78
2022-12-31T14:05:53.117Z,7.82
2022-12-31T14:09:09.178Z,7.88
2022-12-31T14:12:37.864Z,7.93
2022-12-31T14:16:09.110Z,7.92
2022-12-31T14:19:41.185Z,8.00
2022-12-31T14:23:11.164Z,8.01
2022-12-31T14:26:25.121Z,8.04
2022-12-31T14:30:04.445Z,7.91
2022-12-31T14:33:37.207Z,7.74
2022-12-31T14:37:08.163Z,7.75
2022-12-31T14:40:41.844Z,7.81
2022-12-31T14:44:12.199Z,7.92
2022-12-31T14:47:35.994Z,7.98
2022-12-31T14:50:53.147Z,7.95
2022-12-31T14:53:56.586Z,7.83
2022-12-31T14:57:30.199Z,7.74
2022-12-31T15:00:42.156Z,7.62
2022-12-31T15:03:51.124Z,7.52
2022-12-31T15:07:13.284Z,7.47
2022-12-31T15:10:36.200Z,7.49
2022-12-31T15:14:14.168Z,7.44
2022-12-31T15:17:58.684Z,7.45
2022-12-31T15:21:31.239Z,7.51
2022-12-31T15:24:45.942Z,7.46
2022-12-31T15:27:55.170Z,7.56
2022-12-31T15:31:20.935Z,7.69
2022-12-31T15:34:42.315Z,7.82
2022-12-31T15:38:09.692Z,7.84
2022-12-31T15:42:10.187Z,7.86
2022-12-31T15:45:21.260Z,7.88
2022-12-31T15:48:52.293Z,7.93
2022-12-31T15:52:08.217Z,7.96
2022-12-31T15:55:39.211Z,8.02
2022-12-31T15:58:54.354Z,8.06
2022-12-31T16:02:03.343Z,8.10
2022-12-31T16:05:28.284Z,8.08
2022-12-31T16:08:41.169Z,8.17
2022-12-31T16:11:57.213Z,8.15
2022-12-31T16:15:07.117Z,8.21
2022-12-31T16:18:23.458Z,8.26
2022-12-31T16:21:43.210Z,8.29
2022-12-31T16:28:27.239Z,8.21
2022-12-31T16:31:42.220Z,8.25
2022-12-31T16:34:50.853Z,8.26
2022-12-31T16:38:17.311Z,8.30
2022-12-31T16:41:32.205Z,8.33
2022-12-31T16:44:34.079Z,8.29
2022-12-31T16:47:56.180Z,8.35
2022-12-31T16:50:58.662Z,8.32
2022-12-31T16:54:26.329Z,8.25
2022-12-31T16:57:35.145Z,8.18
2022-12-31T17:00:44.264Z,8.13
2022-12-31T17:03:58.220Z,8.12
2022-12-31T17:07:26.329Z,8.11
2022-12-31T17:10:36.210Z,8.08
2022-12-31T17:13:45.198Z,8.10
2022-12-31T17:17:07.969Z,8.10
2022-12-31T17:20:29.213Z,8.10
2022-12-31T17:23:39.569Z,8.05
2022-12-31T17:26:54.265Z,8.04
2022-12-31T17:30:19.185Z,8.07
2022-12-31T17:33:37.283Z,8.11
2022-12-31T17:36:57.241Z,8.15
2022-12-31T17:40:50.342Z,8.14
2022-12-31T17:43:59.363Z,8.11
2022-12-31T17:47:18.258Z,8.08
2022-12-31T17:50:28.206Z,8.15
2022-12-31T17:53:36.277Z,8.16
2022-12-31T17:56:45.689Z,8.17
2022-12-31T17:59:54.271Z,8.15
2022-12-31T18:03:03.727Z,8.09
2022-12-31T18:06:19.480Z,8.01
2022-12-31T18:09:34.377Z,8.00
2022-12-31T18:12:37.181Z,7.97
2022-12-31T18:15:52.462Z,7.92
2022-12-31T18:18:57.673Z,7.87
2022-12-31T18:22:12.349Z,7.84
2022-12-31T18:25:23.648Z,7.82
2022-12-31T18:28:32.500Z,7.80
2022-12-31T18:31:43.496Z,7.74
2022-12-31T18:34:52.289Z,7.69
2022-12-31T18:38:01.112Z,7.65
2022-12-31T18:41:10.299Z,7.64
2022-12-31T18:44:25.277Z,7.58
2022-12-31T18:47:37.696Z,7.61
2022-12-31T18:50:47.396Z,7.64
2022-12-31T18:53:56.645Z,7.65
2022-12-31T18:57:05.393Z,7.64
2022-12-31T19:00:14.784Z,7.60
2022-12-31T19:03:29.373Z,7.64
2022-12-31T19:06:44.434Z,7.67
2022-12-31T19:09:48.296Z,7.69
2022-12-31T19:13:05.318Z,7.72
2022-12-31T19:16:08.770Z,7.67
2022-12-31T19:19:24.423Z,7.64
2022-12-31T19:22:33.417Z,7.61
2022-12-31T19:25:42.321Z,7.61
2022-12-31T19:28:51.226Z,7.64
2022-12-31T19:32:00.336Z,7.64
2022-12-31T19:35:12.010Z,7.66
2022-12-31T19:38:33.455Z,7.61
2022-12-31T19:41:42.290Z,7.54
2022-12-31T19:44:58.884Z,7.53
2022-12-31T19:48:07.419Z,7.53
2022-12-31T19:51:18.569Z,7.53
2022-12-31T19:54:27.338Z,7.47
2022-12-31T19:57:42.318Z,7.52
2022-12-31T20:00:49.646Z,7.53
2022-12-31T20:04:08.377Z,7.50
2022-12-31T20:07:10.314Z,7.48
2022-12-31T20:10:27.333Z,7.50
2022-12-31T20:13:36.495Z,7.44
2022-12-31T20:16:45.065Z,7.39
2022-12-31T20:19:54.347Z,7.39
2022-12-31T20:23:03.235Z,7.39
2022-12-31T20:26:11.338Z,7.39
2022-12-31T20:29:26.463Z,7.38
2022-12-31T20:32:28.985Z,7.40
2022-12-31T20:35:43.319Z,7.39
2022-12-31T20:38:52.236Z,7.36
2022-12-31T20:42:00.366Z,7.36
2022-12-31T20:45:22.380Z,7.34
2022-12-31T20:48:31.368Z,7.35
2022-12-31T20:51:51.939Z,7.36
2022-12-31T20:55:01.149Z,7.34
2022-12-31T20:58:16.426Z,7.33
2022-12-31T21:01:21.233Z,7.32
2022-12-31T21:04:36.507Z,7.27
2022-12-31T21:07:38.420Z,7.28
2022-12-31T21:10:56.375Z,7.25
2022-12-31T21:14:05.374Z,7.20
2022-12-31T21:17:20.388Z,7.17
2022-12-31T21:20:23.087Z,7.16
2022-12-31T21:23:37.357Z,7.10
2022-12-31T21:26:52.415Z,7.08
2022-12-31T21:30:22.599Z,7.03
2022-12-31T21:33:31.357Z,6.99
2022-12-31T21:36:39.985Z,6.98
2022-12-31T21:39:55.383Z,6.97
2022-12-31T21:43:04.217Z,6.97
2022-12-31T21:46:19.441Z,7.00
2022-12-31T21:49:21.534Z,7.01
2022-12-31T21:52:36.395Z,7.01
2022-12-31T21:55:52.412Z,7.00
2022-12-31T21:59:07.610Z,6.98
2022-12-31T22:02:23.474Z,6.93
2022-12-31T22:05:32.418Z,6.92
2022-12-31T22:08:50.514Z,6.89
2022-12-31T22:11:59.579Z,6.87
2022-12-31T22:15:15.640Z,6.80
2022-12-31T22:18:24.506Z,6.84
2022-12-31T22:21:39.413Z,6.83
2022-12-31T22:24:41.206Z,6.78
2022-12-31T22:28:36.147Z,6.74
2022-12-31T22:31:29.459Z,6.75
2022-12-31T22:34:44.460Z,6.72
2022-12-31T22:37:58.499Z,6.68
2022-12-31T22:41:21.430Z,6.70
2022-12-31T22:44:23.361Z,6.69
2022-12-31T22:47:45.455Z,6.68
2022-12-31T22:51:02.398Z,6.67
2022-12-31T22:54:04.470Z,6.64
2022-12-31T22:57:20.318Z,6.60
2022-12-31T23:00:46.454Z,6.65
2022-12-31T23:04:02.600Z,6.65
2022-12-31T23:07:11.492Z,6.58
2022-12-31T23:10:20.132Z,6.57
2022-12-31T23:13:28.486Z,6.49
2022-12-31T23:16:43.482Z,6.50
2022-12-31T23:19:52.202Z,6.48
2022-12-31T23:23:00.414Z,6.49
2022-12-31T23:26:15.421Z,6.44
2022-12-31T23:29:19.658Z,6.45
2022-12-31T23:32:35.397Z,6.35
2022-12-31T23:35:37.466Z,6.48
2022-12-31T23:38:52.565Z,6.41
2022-12-31T23:41:54.509Z,6.42
2022-12-31T23:45:10.455Z,6.41
2022-12-31T23:48:19.131Z,6.37
2022-12-31T23:51:33.424Z,6.37
2022-12-31T23:54:35.400Z,6.39
2022-12-31T23:57:50.470Z,6.39
